アトランタ の空港の天気 - METARとTAF

ハーツフィールド・ジャクソン・アトランタ国際空港 ( KATL / ATL ) - アメリカ合衆国 ジョージア州アトランタ
飛行場実況気象(Metar)
観測時間09/23 06:52 EDT (09/23 10:52 UTC)
風向・風速東 3m/s
視程10km以上
天気現象
少しの雲 雲底高度 3050m
少しの雲 雲底高度 7620m
気温21.7℃
湿度84%
気圧1016.7hPa
METARKATL 231052Z 09005KT 10SM FEW100 FEW250 22/19 A3005 RMK AO2 SLP167 T02170189
過去の天気等 Google飛行場航空写真 Wunderground天気予報

過去48時間のMETAR

飛行場予報(TAF)
発表時間: 9/23 05:30 EDT (9/23 09:30 UTC)
予報対象時間: 23日6時 EDT ~ 24日8時 EDT
風向・風速東北東 3m/s
視程10km以上
少しの雲 雲底高度 3,050m
全天の4割程度の雲 雲底高度 7,620m
23日11時 EDT から
風向・風速東 4m/s
視程10km以上
少しの雲 雲底高度 1,070m
23日14時 EDT から
風向・風速東 4m/s
視程10km以上
全天の4割程度の雲 雲底高度 1,520m
23日21時 EDT から
風向・風速東 3m/s
視程10km以上
少しの雲 雲底高度 1,520m
全天の4割程度の雲 雲底高度 7,620m
KATL 230930Z 2310/2412 07005KT P6SM FEW100 SCT250
FM231500 08007KT P6SM FEW035
FM231800 08007KT P6SM SCT050
FM240100 08005KT P6SM FEW050 SCT250